Airfield :







YOU CAN JOIN US ON...

 
LOGIN :

Register | Disclaimer

   EN    FR    IT 

 









Legend :    VFR   Marginal VFR   IFR   Intensive IFR   Very Intensive IFR
Visi :
Ceiling :
>= 8 km
>= 3000ft
5 to 8 km
1000 to 3000 ft
1500m to 5 km
500 to 1000 ft
800 to 1500m
200 to 500 ft
< 800m
< 200 ft
Symbols :   Thunderstorms  Fog  Heavy snow  Heavy precipitations  Wind > 20 kt






- Airport Elevation : 565 ft
- IATA code : STI


MDST - Cibao Int.

CURRENT METAR :
  • 220300Z 00000KT 9999 FEW017CB BKN018 SCT300 23/23 Q1019 CB/NE/E/S/N

EXPIRED METARs :
  • 220200Z 12004KT 9999 FEW017CB BKN018 SCT300 24/24 Q1019 CB/NE/E/S
  • 220100Z 08006KT 9999 FEW018CB BKN018 SCT300 25/24 Q1019 CB/E/SE/SW

TAF TAF MDST
Valid from the 22 at 00:00 until the 23 at 00:00 UTC


212200Z 2200/2300 11010KT 9999 FEW018CB BKN020
PROB30
TEMPO 2200/2206 7000 -TSRA FEW016CB BKN017 SCT300
BECMG 2206/2208 00000KT
MDCS FIR / North America



MET'MAP, your aeronautical weather chart ! - Copyright ORBIFLY December 2007 - Disclaimer

ORBIFLY MET'MAP TEAM :

Programming & Development : Alexandra Zaïnal
Concept & original design : Baudouin d'Aumeries
Assistance for programming : Marc-Olivier Méhu
Technical & hardware support : Manuel Goepfert

Contact : metmap@orbifly.com




SOURCES & CREDITS :

   NOAA